LICC Airport Information

Runway Information
Runway 08 Length 7989 ft width 148 ft
Elevation 37 ft Threshold 312 ft Heading 84
Runway 26 Length 7989 ft Width 148 ft
Elevation 17 ft Threshold 279 ft Heading 264
Airport Frequencies
Type APP Name APP Frequency 119.25 MHZ
Type DIR Name DIRECTOR Frequency 120.8 MHZ
Type GND Name GND Frequency 129.725 MHZ
Type TWR Name TWR Frequency 118.7 MHZ
Airport Navaids
Type NDB Name Catania Frequency 345 KHZ
Type VOR-DME Name Catania Fontanarossa Frequency 116250 KHZ
Type NDB Name Catania Fontanarossa Frequency 407 KHZ
Airport Weather Information & NOTAM
ADDS - METARS form results

(1856 UTC 20 October 2019)
Data provider http://aviationweather.gov/metar/data/
 
METAR text: LICC 201850Z 04003KT 360V070 9999 FEW060 23/20 Q1020
Conditions at: LICC (CATANIA/FONTANAR, IT) observed 1850 UTC 20 October 2019
Temperature: 23.0°C (73°F)
Dewpoint: 20.0°C (68°F) [RH = 83%]
Pressure (altimeter): 30.12 inches Hg (1020.0 mb)
Winds: from the NE (40 degrees) at 3 MPH (3 knots; 1.5 m/s)
Visibility: 6 or more miles (10+ km)
Ceiling: at least 12,000 feet AGL
Clouds: few clouds at 6000 feet AGL
Weather: no significant weather observed at this time

METAR text: LICC 201820Z 05003KT 020V080 9999 FEW060 23/20 Q1020
Conditions at: LICC (CATANIA/FONTANAR, IT) observed 1820 UTC 20 October 2019
Temperature: 23.0°C (73°F)
Dewpoint: 20.0°C (68°F) [RH = 83%]
Pressure (altimeter): 30.12 inches Hg (1020.0 mb)
Winds: from the NE (50 degrees) at 3 MPH (3 knots; 1.5 m/s)
Visibility: 6 or more miles (10+ km)
Ceiling: at least 12,000 feet AGL
Clouds: few clouds at 6000 feet AGL
Weather: no significant weather observed at this time

Forecast for: LICC (CATANIA/FONTANAR, IT)
Text: TAF LICC 201700Z 2018/2118 VRB05KT 9999 FEW030
Forecast period: 1800 UTC 20 October 2019 to 0800 UTC 21 October 2019
Forecast type: FROM: standard forecast or significant change
Winds: variable direction winds at 6 MPH (5 knots; 2.6 m/s)
Visibility: 6 or more miles 10+ km)
Ceiling: at least 12,000 feet AGL
Clouds: few clouds at 3000 feet AGL
Weather: no significant weather forecast for this period
Text: BECMG 2108/2110 12010KT
Forecast period: 0800 to 1600 UTC 21 October 2019
Forecast type: BECOMING: Conditions expected to become as follows by 1000 UTC 21 October 2019
Winds: from the ESE (120 degrees) at 12 MPH (10 knots; 5.1 m/s)
Visibility: 6 or more miles 10+ km)
Ceiling: at least 12,000 feet AGL
Clouds: few clouds at 3000 feet AGL
Weather: no significant weather forecast for this period
Text: BECMG 2116/2118 VRB05KT
Forecast period: 1600 to 1800 UTC 21 October 2019
Forecast type: BECOMING: Conditions expected to become as follows by 1800 UTC 21 October 2019
Winds: variable direction winds at 6 MPH (5 knots; 2.6 m/s)
Visibility: 6 or more miles 10+ km)
Ceiling: at least 12,000 feet AGL
Clouds: few clouds at 3000 feet AGL
Weather: no significant weather forecast for this period